• Join FlightAware (Why Join?)
  • Login
  • US Flag 
04:03AM EST


 

Airport Tracker/Info


-or-


 

Live Flight TrackerFlight Track Log ✈ N28295 ✈ 02-May-2013 ✈ 2G9 - KGAI

Flight Track Log - Related Links

Times and Time Zones

All times are in EDT time to prevent confusion due to time zone crossing. See the N28295 flight status page for this flight to view local times or setup timezone preferences in your user account.

Time Position Orientation Groundspeed Altitude Reporting Facility
EDT Latitude Longitude Course Direction KTS MPH feet Rate Location/Type
07:22AM 39.9819 -78.9058 121° Southeast 85 98 5,300  Level Cleveland Center
07:23AM 39.9669 -78.8767 124° Southeast 91 105 5,500 60 Climbing Cleveland Center
07:24AM 39.9497 -78.8417 123° Southeast 107 123 5,500  Level Cleveland Center
07:25AM 39.9386 -78.8094 114° Southeast 103 119 5,500  Level Cleveland Center
07:26AM 39.9236 -78.7775 121° Southeast 106 122 5,500  Level Cleveland Center
07:27AM 39.9086 -78.7456 121° Southeast 105 121 5,500  Level Cleveland Center
07:28AM 39.9285 -78.7743 121° Southeast  Level Estimated
07:28AM 39.8914 -78.7108 123° Southeast 107 123 5,500  Level Cleveland Center
07:29AM 39.8781 -78.6758 116° Southeast 108 124 5,500 -60 Level Cleveland Center
07:31AM 39.8508 -78.6158 121° Southeast 119 137 5,400  Descending Washington Center
07:32AM 39.8350 -78.5800 120° Southeast 119 137 5,500  Climbing Washington Center
07:33AM 39.8172 -78.5442 123° Southeast 119 137 5,500  Level Washington Center
07:34AM 39.8014 -78.5111 122° Southeast 119 137 5,500  Level Washington Center
07:35AM 39.7833 -78.4753 123° Southeast 119 137 5,500  Level Washington Center
07:36AM 39.7697 -78.4422 118° Southeast 119 137 5,500  Level Washington Center
07:37AM 39.7517 -78.4064 123° Southeast 119 137 5,500  Level Washington Center
07:38AM 39.7339 -78.3708 123° Southeast 119 137 5,500  Level Washington Center
07:39AM 39.7200 -78.3350 117° Southeast 119 137 5,500  Level Washington Center
07:40AM 39.7042 -78.3022 122° Southeast 119 137 5,600  Climbing Washington Center
07:41AM 39.6883 -78.2664 120° Southeast 119 137 5,500 -60 Descending Washington Center
07:42AM 39.6722 -78.2336 123° Southeast 119 137 5,500  Level Washington Center
07:43AM 39.6564 -78.1978 120° Southeast 113 130 5,500 -600 Level Washington Center
07:44AM 39.6406 -78.1597 118° Southeast 113 130 4,400 -1,020 Descending Washington Center
07:45AM 39.6225 -78.1211 121° Southeast 118 136 3,500 -480 Descending Washington Center
07:46AM 39.6044 -78.0911 128° Southeast 123 142 3,500  Level Washington Center
07:47AM 39.5886 -78.0556 120° Southeast 118 136 3,500  Level Washington Center
07:48AM 39.5706 -78.0172 121° Southeast 118 136 3,500  Level Washington Center
07:49AM 39.5544 -77.9817 120° Southeast 118 136 3,500  Level Washington Center
07:50AM 39.5386 -77.9461 120° Southeast 118 136 3,500  Level Washington Center
07:51AM 39.5206 -77.9106 123° Southeast 123 142 3,500  Level Washington Center
07:52AM 39.5025 -77.8750 123° Southeast 123 142 3,500  Level Washington Center
07:54AM 39.4667 -77.7833 117° Southeast 118 136 3,500  Level Potomac TRACON
07:55AM 39.4500 -77.7500 123° Southeast 119 137 3,500  Level Potomac TRACON
07:56AM 39.4333 -77.7167 123° Southeast 120 138 3,500  Level Potomac TRACON
07:57AM 39.4167 -77.6833 123° Southeast 121 139 3,500  Level Potomac TRACON
07:58AM 39.4000 -77.6500 123° Southeast 122 140 3,500  Level Potomac TRACON
07:59AM 39.3833 -77.6167 123° Southeast 119 137 3,500 -360 Level Potomac TRACON
08:00AM 39.3667 -77.5833 123° Southeast 122 140 2,900 -600 Descending Potomac TRACON
08:01AM 39.3500 -77.5500 123° Southeast 126 145 2,400 -720 Descending Potomac TRACON
08:02AM 39.3333 -77.5167 123° Southeast 125 144 1,700 -480 Descending Potomac TRACON
08:03AM 39.3167 -77.4667 113° Southeast 125 144 1,500 -120 Descending Potomac TRACON
08:04AM 39.3000 -77.4333 123° Southeast 128 147 1,500  Level Potomac TRACON
08:05AM 39.2833 -77.4000 123° Southeast 129 148 1,500  Level Potomac TRACON
08:06AM 39.2667 -77.3667 123° Southeast 129 148 1,600 300 Climbing Potomac TRACON
08:07AM 39.2500 -77.3333 123° Southeast 118 136 2,200 360 Climbing Potomac TRACON
08:08AM 39.2333 -77.3000 123° Southeast 126 145 2,400 60 Climbing Potomac TRACON
08:09AM 39.2500 -77.2667 57° Northeast 154 177 2,400  Level Potomac TRACON
08:10AM 39.2500 -77.3167 270° West 159 183 2,400 120 Level Potomac TRACON
08:11AM 39.2667 -77.3667 293° West 144 166 2,700 480 Climbing Potomac TRACON
08:12AM 39.2667 -77.4167 270° West 126 145 3,400 600 Climbing Potomac TRACON
08:13AM 39.2500 -77.4500 237° Southwest 106 122 4,000 240 Climbing Potomac TRACON
08:14AM 39.2833 -77.4833 322° Northwest 136 157 4,000  Level Potomac TRACON
08:15AM 39.3167 -77.5000 339° North 140 161 4,000  Level Potomac TRACON
08:16AM 39.3500 -77.5000 360° North 143 165 4,000  Level Potomac TRACON
08:17AM 39.3833 -77.4833 21° North 130 150 4,000  Level Potomac TRACON
08:18AM 39.4000 -77.4667 38° Northeast 123 142 4,000  Level Potomac TRACON
08:19AM 39.3833 -77.4333 123° Southeast 149 171 4,000 -360 Level Potomac TRACON
08:20AM 39.3500 -77.4167 159° South 125 144 3,300 -480 Descending Potomac TRACON
08:21AM 39.3167 -77.3833 142° Southeast 123 142 3,100 -120 Descending Potomac TRACON
08:22AM 39.2833 -77.3667 159° South 122 140 3,100 -60 Level Potomac TRACON
08:23AM 39.2667 -77.3333 123° Southeast 124 143 3,000 -360 Descending Potomac TRACON
08:24AM 39.2500 -77.3000 123° Southeast 126 145 2,400 -420 Descending Potomac TRACON
08:25AM 39.2333 -77.2667 123° Southeast 129 148 2,200 -360 Descending Potomac TRACON
08:26AM 39.2167 -77.2333 123° Southeast 106 122 1,700 -600 Descending Potomac TRACON
08:27AM 39.2000 -77.2167 142° Southeast 98 113 1,100 -600 Descending Potomac TRACON